createdAt,value
2018-03-25T00:00:15.035Z,3.06
2018-03-25T00:02:42.879Z,2.82
2018-03-25T00:05:10.407Z,2.76
2018-03-25T00:07:37.931Z,2.76
2018-03-25T00:10:05.480Z,2.64
2018-03-25T00:12:32.995Z,2.51
2018-03-25T00:15:00.527Z,2.38
2018-03-25T00:17:28.075Z,2.32
2018-03-25T00:19:55.602Z,2.51
2018-03-25T00:22:23.120Z,2.43
2018-03-25T00:24:51.237Z,2.35
2018-03-25T00:27:18.772Z,2.37
2018-03-25T00:29:46.315Z,2.50
2018-03-25T00:32:13.841Z,2.40
2018-03-25T00:34:41.640Z,2.55
2018-03-25T00:37:09.408Z,2.63
2018-03-25T00:39:36.931Z,2.33
2018-03-25T00:42:04.699Z,2.32
2018-03-25T00:44:32.220Z,2.23
2018-03-25T00:46:59.743Z,2.21
2018-03-25T00:49:27.303Z,2.37
2018-03-25T00:51:54.828Z,2.26
2018-03-25T00:54:22.363Z,2.32
2018-03-25T00:56:49.874Z,2.42
2018-03-25T00:59:17.410Z,2.39
2018-03-25T01:01:44.960Z,2.29
2018-03-25T01:04:12.572Z,2.53
2018-03-25T01:06:40.105Z,2.56
2018-03-25T01:09:07.699Z,2.30
2018-03-25T01:11:35.450Z,2.43
2018-03-25T01:14:02.978Z,2.52
2018-03-25T01:16:30.503Z,2.33
2018-03-25T01:18:58.029Z,2.35
2018-03-25T01:21:25.627Z,2.41
2018-03-25T01:23:53.155Z,2.36
2018-03-25T01:26:20.674Z,2.37
2018-03-25T01:28:48.231Z,2.45
2018-03-25T01:31:15.751Z,2.38
2018-03-25T01:33:44.231Z,2.48
2018-03-25T01:36:11.783Z,2.39
2018-03-25T01:38:39.296Z,2.43
2018-03-25T01:41:06.817Z,2.44
2018-03-25T01:43:34.346Z,2.33
2018-03-25T01:46:01.862Z,2.42
2018-03-25T01:48:29.383Z,2.35
2018-03-25T01:50:56.930Z,2.42
2018-03-25T01:53:24.451Z,2.36
2018-03-25T01:55:51.966Z,2.33
2018-03-25T01:58:19.484Z,2.23
2018-03-25T02:00:47.006Z,2.21
2018-03-25T02:03:14.714Z,2.26
2018-03-25T02:05:42.305Z,2.34
2018-03-25T02:08:10.071Z,2.08
2018-03-25T02:10:37.609Z,2.23
2018-03-25T02:13:05.144Z,2.24
2018-03-25T02:15:32.689Z,2.20
2018-03-25T02:18:00.230Z,2.27
2018-03-25T02:20:28.014Z,2.16
2018-03-25T02:22:55.550Z,2.09
2018-03-25T02:25:23.970Z,2.25
2018-03-25T02:27:51.495Z,2.18
2018-03-25T02:30:19.048Z,1.97
2018-03-25T02:32:46.898Z,2.19
2018-03-25T02:35:14.451Z,2.14
2018-03-25T02:37:41.993Z,2.09
2018-03-25T02:40:09.520Z,2.03
2018-03-25T02:42:37.048Z,1.98
2018-03-25T02:45:04.581Z,2.05
2018-03-25T02:47:32.106Z,2.07
2018-03-25T02:49:59.712Z,2.06
2018-03-25T02:52:27.266Z,1.91
2018-03-25T02:54:54.788Z,2.11
2018-03-25T02:57:22.329Z,2.10
2018-03-25T02:59:49.850Z,2.12
2018-03-25T03:02:17.395Z,2.10
2018-03-25T03:04:44.928Z,2.23
2018-03-25T03:07:12.488Z,2.19
2018-03-25T03:09:40.287Z,1.90
2018-03-25T03:12:07.815Z,1.91
2018-03-25T03:14:35.348Z,2.07
2018-03-25T03:17:02.880Z,2.15
2018-03-25T03:19:30.419Z,2.04
2018-03-25T03:21:58.171Z,2.15
2018-03-25T03:24:25.691Z,2.08
2018-03-25T03:26:53.238Z,1.96
2018-03-25T03:29:21.022Z,2.19
2018-03-25T03:31:48.847Z,1.88
2018-03-25T03:34:16.415Z,2.04
2018-03-25T03:36:44.215Z,2.03
2018-03-25T03:39:11.971Z,1.97
2018-03-25T03:41:39.535Z,2.10
2018-03-25T03:44:07.067Z,1.90
2018-03-25T03:46:34.595Z,2.16
2018-03-25T03:49:02.167Z,2.18
2018-03-25T03:51:29.694Z,2.15
2018-03-25T03:53:57.277Z,2.11
2018-03-25T03:56:24.786Z,2.05
2018-03-25T03:58:52.314Z,2.14
2018-03-25T04:01:19.835Z,2.13
2018-03-25T04:03:47.367Z,1.99
2018-03-25T04:06:14.944Z,1.95
2018-03-25T04:08:42.472Z,2.03
2018-03-25T04:11:10.003Z,1.83
2018-03-25T04:13:37.522Z,1.97
2018-03-25T04:16:05.059Z,1.94
2018-03-25T04:18:32.580Z,1.79
2018-03-25T04:21:00.101Z,1.74
2018-03-25T04:23:27.667Z,1.75
2018-03-25T04:25:55.179Z,1.71
2018-03-25T04:28:22.702Z,1.66
2018-03-25T04:30:50.227Z,1.61
2018-03-25T04:33:17.760Z,1.57
2018-03-25T04:35:45.305Z,1.78
2018-03-25T04:38:12.842Z,1.81
2018-03-25T04:40:40.359Z,1.79
2018-03-25T04:43:07.881Z,1.79
2018-03-25T04:45:35.438Z,1.80
2018-03-25T04:48:03.300Z,1.72
2018-03-25T04:50:31.096Z,1.70
2018-03-25T04:52:58.620Z,1.79
2018-03-25T04:55:26.177Z,1.86
2018-03-25T04:57:53.749Z,1.71
2018-03-25T05:00:21.279Z,1.74
2018-03-25T05:02:48.831Z,1.84
2018-03-25T05:05:16.355Z,1.97
2018-03-25T05:07:43.940Z,1.93
2018-03-25T05:10:11.451Z,1.88
2018-03-25T05:12:38.971Z,2.00
2018-03-25T05:15:06.501Z,1.99
2018-03-25T05:17:34.134Z,1.77
2018-03-25T05:20:01.978Z,1.78
2018-03-25T05:22:29.846Z,1.90
2018-03-25T05:24:57.383Z,1.96
2018-03-25T05:27:24.918Z,2.03
2018-03-25T05:29:52.454Z,1.88
2018-03-25T05:32:20.287Z,1.97
2018-03-25T05:34:48.475Z,1.85
2018-03-25T05:37:15.999Z,2.00
2018-03-25T05:39:43.694Z,1.99
2018-03-25T05:42:11.252Z,1.83
2018-03-25T05:44:39.416Z,1.93
2018-03-25T05:47:06.944Z,2.03
2018-03-25T05:49:34.715Z,2.25
2018-03-25T05:52:02.469Z,2.14
2018-03-25T05:54:29.999Z,2.00
2018-03-25T05:56:58.096Z,1.91
2018-03-25T05:59:25.878Z,2.01
2018-03-25T06:01:53.768Z,1.96
2018-03-25T06:04:21.285Z,2.10
2018-03-25T06:06:48.822Z,1.97
2018-03-25T06:09:16.444Z,2.00
2018-03-25T06:11:44.036Z,2.05
2018-03-25T06:14:11.601Z,2.16
2018-03-25T06:16:39.499Z,2.16
2018-03-25T06:19:07.027Z,1.96
2018-03-25T06:34:39.999Z,11.11
2018-03-25T06:37:07.518Z,6.51
2018-03-25T06:39:35.032Z,4.50
2018-03-25T06:42:02.585Z,3.33
2018-03-25T06:44:30.106Z,3.03
2018-03-25T06:46:57.635Z,2.85
2018-03-25T06:49:25.150Z,3.08
2018-03-25T06:51:52.672Z,3.03
2018-03-25T06:54:20.214Z,3.26
2018-03-25T06:56:47.743Z,4.06
2018-03-25T06:59:15.266Z,3.90
2018-03-25T07:01:42.811Z,3.54
2018-03-25T07:04:10.326Z,3.69
2018-03-25T07:06:37.868Z,3.53
2018-03-25T07:09:05.399Z,4.02
2018-03-25T07:11:32.928Z,4.18
2018-03-25T07:14:00.467Z,4.37
2018-03-25T07:16:27.989Z,5.35
2018-03-25T07:18:55.506Z,5.76
2018-03-25T07:21:23.031Z,5.13
2018-03-25T07:23:50.561Z,4.95
2018-03-25T07:26:18.107Z,4.50
2018-03-25T07:28:45.614Z,4.26
2018-03-25T07:31:13.157Z,4.57
2018-03-25T07:33:40.673Z,4.89
2018-03-25T07:36:08.191Z,5.65
2018-03-25T07:38:35.718Z,6.12
2018-03-25T07:41:03.244Z,5.56
2018-03-25T07:43:30.804Z,5.89
2018-03-25T07:45:58.344Z,5.79
2018-03-25T07:48:25.888Z,5.55
2018-03-25T07:50:53.474Z,5.22
2018-03-25T07:53:21.040Z,5.09
2018-03-25T07:55:48.567Z,5.65
2018-03-25T07:58:16.076Z,5.49
2018-03-25T08:00:43.587Z,5.80
2018-03-25T08:03:11.102Z,5.46
2018-03-25T08:05:38.651Z,5.29
2018-03-25T08:08:06.235Z,5.18
2018-03-25T08:10:33.756Z,5.34
2018-03-25T08:13:01.274Z,5.79
2018-03-25T08:15:28.821Z,5.74
2018-03-25T08:17:56.337Z,6.62
2018-03-25T08:20:23.868Z,5.89
2018-03-25T08:22:51.417Z,5.22
2018-03-25T08:25:18.964Z,4.51
2018-03-25T08:27:46.497Z,4.62
2018-03-25T08:30:14.110Z,4.42
2018-03-25T08:32:41.663Z,4.63
2018-03-25T08:35:09.183Z,4.65
2018-03-25T08:37:36.703Z,4.72
2018-03-25T08:40:04.259Z,4.73
2018-03-25T08:42:31.805Z,4.74
2018-03-25T08:44:59.392Z,4.84
2018-03-25T08:47:26.991Z,4.91
2018-03-25T08:49:54.523Z,5.13
2018-03-25T08:52:22.908Z,4.84
2018-03-25T08:54:50.432Z,4.80
2018-03-25T08:57:17.971Z,4.80
2018-03-25T08:59:45.506Z,5.06
2018-03-25T09:02:13.026Z,4.96
2018-03-25T09:04:40.557Z,4.99
2018-03-25T09:07:08.091Z,4.74
2018-03-25T09:09:35.611Z,5.08
2018-03-25T09:12:03.166Z,4.91
2018-03-25T09:14:30.697Z,4.73
2018-03-25T09:16:58.218Z,4.57
2018-03-25T09:19:25.764Z,4.57
2018-03-25T09:21:53.303Z,4.65
2018-03-25T09:24:20.835Z,4.55
2018-03-25T09:26:48.355Z,5.09
2018-03-25T09:29:15.880Z,4.95
2018-03-25T09:31:43.437Z,5.17
2018-03-25T09:34:10.963Z,5.59
2018-03-25T09:36:38.491Z,5.54
2018-03-25T09:39:06.071Z,5.06
2018-03-25T09:41:33.600Z,5.11
2018-03-25T09:44:01.148Z,5.17
2018-03-25T09:46:28.676Z,4.97
2018-03-25T09:48:56.243Z,5.19
2018-03-25T09:51:23.825Z,4.89
2018-03-25T09:53:51.356Z,4.93
2018-03-25T09:56:18.931Z,5.15
2018-03-25T09:58:46.501Z,4.72
2018-03-25T10:04:18.059Z,5.20
2018-03-25T10:06:45.625Z,5.19
2018-03-25T10:09:13.702Z,5.39
2018-03-25T10:11:41.257Z,5.73
2018-03-25T10:14:08.792Z,5.65
2018-03-25T10:16:36.366Z,5.91
2018-03-25T10:19:03.951Z,5.59
2018-03-25T10:21:31.496Z,5.42
2018-03-25T10:23:59.118Z,5.28
2018-03-25T10:26:26.656Z,5.13
2018-03-25T10:28:54.498Z,5.15
2018-03-25T10:31:22.074Z,5.10
2018-03-25T10:33:49.635Z,5.23
2018-03-25T10:36:17.181Z,5.25
2018-03-25T10:38:44.732Z,5.36
2018-03-25T10:41:12.520Z,5.48
2018-03-25T10:43:40.054Z,5.39
2018-03-25T10:46:07.600Z,5.16
2018-03-25T10:48:35.173Z,5.22
2018-03-25T10:51:02.700Z,5.01
2018-03-25T10:53:30.228Z,4.93
2018-03-25T10:55:57.767Z,5.12
2018-03-25T10:58:25.291Z,5.19
2018-03-25T11:00:52.828Z,5.07
2018-03-25T11:03:20.407Z,5.05
2018-03-25T11:05:47.944Z,4.99
2018-03-25T11:08:15.491Z,4.97
2018-03-25T11:10:43.022Z,4.90
2018-03-25T11:13:10.816Z,5.08
2018-03-25T11:15:39.276Z,6.25
2018-03-25T11:18:07.062Z,6.21
2018-03-25T11:20:34.660Z,6.63
2018-03-25T11:23:02.186Z,6.25
2018-03-25T11:25:29.956Z,6.35
2018-03-25T11:27:57.707Z,6.41
2018-03-25T11:30:25.282Z,7.46
2018-03-25T11:32:52.807Z,7.38
2018-03-25T11:35:20.348Z,6.38
2018-03-25T11:37:48.137Z,7.02
2018-03-25T11:40:15.684Z,6.40
2018-03-25T11:42:43.243Z,5.79
2018-03-25T11:45:10.804Z,5.23
2018-03-25T11:47:38.423Z,5.16
2018-03-25T11:50:06.187Z,5.31
2018-03-25T11:52:33.749Z,5.28
2018-03-25T11:55:01.288Z,4.84
2018-03-25T11:57:28.815Z,4.81
2018-03-25T11:59:56.380Z,4.13
2018-03-25T12:02:23.908Z,4.56
2018-03-25T12:04:51.447Z,4.45
2018-03-25T12:07:18.987Z,4.55
2018-03-25T12:09:46.531Z,4.31
2018-03-25T12:12:14.083Z,4.20
2018-03-25T12:14:41.617Z,4.48
2018-03-25T12:17:09.140Z,4.44
2018-03-25T12:19:36.683Z,4.43
2018-03-25T12:22:04.227Z,4.46
2018-03-25T12:24:31.780Z,4.64
2018-03-25T12:26:59.351Z,4.55
2018-03-25T12:29:26.877Z,4.51
2018-03-25T12:31:54.396Z,4.47
2018-03-25T12:34:21.919Z,4.59
2018-03-25T12:36:49.471Z,4.88
2018-03-25T12:39:16.999Z,5.01
2018-03-25T12:41:44.515Z,5.14
2018-03-25T12:44:12.698Z,5.02
2018-03-25T12:46:40.265Z,5.25
2018-03-25T12:49:07.819Z,5.34
2018-03-25T12:51:35.347Z,5.09
2018-03-25T12:54:02.883Z,4.95
2018-03-25T12:56:30.428Z,4.79
2018-03-25T12:58:58.208Z,4.94
2018-03-25T13:01:25.884Z,4.88
2018-03-25T13:03:53.415Z,4.79
2018-03-25T13:06:20.932Z,4.88
2018-03-25T13:08:48.514Z,4.73
2018-03-25T13:11:16.049Z,4.69
2018-03-25T13:13:43.592Z,4.87
2018-03-25T13:16:11.115Z,4.81
2018-03-25T13:18:38.663Z,4.63
2018-03-25T13:21:06.205Z,4.97
2018-03-25T13:23:34.395Z,4.86
2018-03-25T13:26:01.951Z,4.68
2018-03-25T13:28:29.484Z,4.79
2018-03-25T13:30:57.046Z,4.82
2018-03-25T13:33:24.664Z,4.72
2018-03-25T13:35:52.494Z,4.90
2018-03-25T13:38:20.020Z,4.98
2018-03-25T13:40:47.545Z,5.05
2018-03-25T13:43:15.381Z,5.18
2018-03-25T13:45:43.035Z,4.99
2018-03-25T13:48:10.618Z,5.29
2018-03-25T13:50:38.911Z,5.49
2018-03-25T13:53:06.439Z,5.20
2018-03-25T13:55:33.963Z,5.28
2018-03-25T13:58:01.487Z,5.27
2018-03-25T14:00:29.148Z,5.36
2018-03-25T14:02:56.661Z,5.10
2018-03-25T14:05:24.255Z,5.11
2018-03-25T14:07:51.768Z,4.92
2018-03-25T14:10:19.317Z,5.08
2018-03-25T14:12:46.886Z,5.10
2018-03-25T14:15:14.403Z,4.96
2018-03-25T14:17:42.024Z,5.02
2018-03-25T14:20:09.564Z,5.26
2018-03-25T14:22:37.088Z,4.74
2018-03-25T14:25:04.661Z,4.52
2018-03-25T14:27:32.190Z,4.53
2018-03-25T14:29:59.764Z,4.55
2018-03-25T14:32:27.288Z,4.65
2018-03-25T14:34:54.811Z,4.65
2018-03-25T14:37:22.350Z,4.82
2018-03-25T14:39:49.883Z,4.72
2018-03-25T14:42:17.688Z,4.55
2018-03-25T14:44:45.216Z,4.61
2018-03-25T14:47:12.745Z,4.73
2018-03-25T14:49:40.292Z,4.57
2018-03-25T14:52:07.831Z,4.30
2018-03-25T14:54:35.363Z,4.28
2018-03-25T14:57:03.036Z,4.07
2018-03-25T14:59:30.567Z,4.05
2018-03-25T15:01:58.217Z,3.89
2018-03-25T15:04:25.714Z,3.99
2018-03-25T15:06:53.234Z,4.08
2018-03-25T15:09:20.773Z,4.08
2018-03-25T15:11:48.303Z,4.03
2018-03-25T15:14:15.893Z,3.76
2018-03-25T15:16:43.412Z,3.91
2018-03-25T15:19:10.944Z,3.89
2018-03-25T15:21:38.487Z,3.97
2018-03-25T15:24:06.039Z,3.84
2018-03-25T15:26:33.556Z,3.76
2018-03-25T15:29:01.080Z,3.71
2018-03-25T15:31:28.648Z,3.83
2018-03-25T15:33:56.167Z,3.77
2018-03-25T15:36:23.735Z,3.67
2018-03-25T15:38:51.265Z,3.55
2018-03-25T15:41:18.801Z,3.58
2018-03-25T15:43:46.418Z,3.69
2018-03-25T15:46:13.934Z,3.75
2018-03-25T15:48:42.235Z,3.61
2018-03-25T15:51:09.776Z,3.72
2018-03-25T15:53:37.304Z,3.72
2018-03-25T15:56:04.824Z,3.64
2018-03-25T15:58:32.348Z,3.52
2018-03-25T16:00:59.890Z,3.63
2018-03-25T16:03:27.425Z,3.71
2018-03-25T16:05:54.959Z,3.66
2018-03-25T16:08:22.487Z,3.55
2018-03-25T16:10:50.783Z,3.54
2018-03-25T16:13:18.335Z,3.44
2018-03-25T16:15:45.867Z,3.54
2018-03-25T16:18:13.412Z,3.62
2018-03-25T16:20:40.972Z,3.74
2018-03-25T16:23:08.508Z,3.74
2018-03-25T16:25:36.032Z,3.65
2018-03-25T16:28:03.562Z,3.79
2018-03-25T16:30:31.106Z,3.76
2018-03-25T16:32:59.498Z,3.64
2018-03-25T16:35:27.035Z,3.71
2018-03-25T16:37:54.579Z,3.68
2018-03-25T16:40:22.098Z,3.76
2018-03-25T16:42:49.614Z,3.80
2018-03-25T16:45:17.170Z,3.82
2018-03-25T16:47:45.694Z,3.52
2018-03-25T16:50:13.219Z,3.47
2018-03-25T16:52:40.752Z,3.63
2018-03-25T16:55:08.326Z,3.72
2018-03-25T16:57:35.832Z,3.75
2018-03-25T17:00:11.319Z,3.71
2018-03-25T17:02:38.844Z,3.63
2018-03-25T17:05:06.360Z,3.72
2018-03-25T17:07:33.888Z,3.64
2018-03-25T17:10:01.404Z,3.64
2018-03-25T17:12:29.008Z,3.69
2018-03-25T17:14:56.547Z,3.64
2018-03-25T17:17:24.075Z,3.81
2018-03-25T17:19:51.608Z,3.59
2018-03-25T17:22:19.146Z,3.68
2018-03-25T17:24:46.662Z,3.70
2018-03-25T17:27:14.262Z,3.74
2018-03-25T17:29:41.767Z,3.86
2018-03-25T17:32:09.285Z,3.89
2018-03-25T17:34:36.802Z,3.85
2018-03-25T17:37:04.332Z,3.90
2018-03-25T17:39:31.899Z,3.88
2018-03-25T17:41:59.427Z,3.80
2018-03-25T17:44:26.993Z,3.85
2018-03-25T17:46:54.520Z,3.84
2018-03-25T17:49:22.069Z,3.84
2018-03-25T17:51:49.598Z,3.86
2018-03-25T17:54:17.759Z,3.95
2018-03-25T17:56:45.289Z,3.85
2018-03-25T17:59:13.770Z,3.92
2018-03-25T18:01:41.300Z,3.74
2018-03-25T18:04:08.814Z,3.80
2018-03-25T18:06:36.356Z,3.74
2018-03-25T18:09:03.911Z,3.83
2018-03-25T18:11:31.428Z,3.78
2018-03-25T18:13:58.947Z,3.28
2018-03-25T18:16:26.491Z,3.78
2018-03-25T18:18:54.009Z,3.77
2018-03-25T18:21:21.552Z,3.73
2018-03-25T18:23:49.104Z,3.74
2018-03-25T18:26:16.631Z,3.78
2018-03-25T18:28:44.153Z,3.65
2018-03-25T18:31:11.687Z,3.78
2018-03-25T18:33:39.210Z,3.82
2018-03-25T18:36:06.772Z,3.78
2018-03-25T18:38:34.317Z,3.80
2018-03-25T18:41:01.891Z,3.89
2018-03-25T18:43:29.408Z,3.81
2018-03-25T18:45:56.936Z,3.91
2018-03-25T18:48:24.465Z,4.00
2018-03-25T18:50:51.988Z,4.01
2018-03-25T18:53:19.550Z,4.12
2018-03-25T18:55:47.079Z,4.04
2018-03-25T18:58:14.617Z,4.04
2018-03-25T19:00:42.195Z,4.10
2018-03-25T19:03:09.727Z,4.19
2018-03-25T19:05:37.285Z,4.21
2018-03-25T19:08:04.824Z,4.14
2018-03-25T19:10:32.349Z,4.10
2018-03-25T19:12:59.879Z,4.13
2018-03-25T19:15:27.399Z,4.18
2018-03-25T19:17:54.928Z,4.20
2018-03-25T19:20:22.447Z,4.19
2018-03-25T19:22:49.992Z,4.10
2018-03-25T19:25:17.513Z,4.16
2018-03-25T19:27:45.034Z,4.24
2018-03-25T19:30:12.583Z,4.30
2018-03-25T19:32:40.107Z,4.24
2018-03-25T19:35:07.627Z,4.33
2018-03-25T19:37:35.155Z,4.33
2018-03-25T19:40:02.677Z,4.31
2018-03-25T19:42:30.207Z,4.36
2018-03-25T19:44:57.729Z,4.31
2018-03-25T19:47:25.335Z,4.35
2018-03-25T19:49:52.862Z,4.34
2018-03-25T19:52:20.484Z,4.31
2018-03-25T19:54:48.020Z,4.40
2018-03-25T19:57:15.571Z,4.38
2018-03-25T19:59:43.124Z,4.34
2018-03-25T20:02:10.676Z,4.33
2018-03-25T20:04:38.251Z,4.19
2018-03-25T20:07:05.772Z,4.36
2018-03-25T20:09:33.287Z,4.39
2018-03-25T20:12:00.852Z,4.45
2018-03-25T20:14:28.443Z,4.34
2018-03-25T20:16:55.929Z,4.43
2018-03-25T20:19:24.111Z,4.44
2018-03-25T20:21:51.647Z,4.46
2018-03-25T20:24:19.185Z,4.39
2018-03-25T20:26:46.704Z,4.37
2018-03-25T20:29:14.263Z,4.37
2018-03-25T20:31:41.800Z,4.51
2018-03-25T20:34:09.340Z,4.60
2018-03-25T20:36:37.022Z,4.58
2018-03-25T20:39:04.572Z,4.54
2018-03-25T20:41:32.146Z,4.47
2018-03-25T20:43:59.673Z,4.49
2018-03-25T20:46:27.215Z,4.53
2018-03-25T20:48:54.830Z,4.56
2018-03-25T20:51:22.351Z,4.52
2018-03-25T20:53:49.894Z,4.50
2018-03-25T20:56:17.416Z,4.32
2018-03-25T20:58:45.004Z,4.35
2018-03-25T21:01:12.563Z,4.40
2018-03-25T21:03:40.183Z,4.47
2018-03-25T21:06:07.698Z,4.45
2018-03-25T21:08:35.235Z,4.57
2018-03-25T21:11:02.828Z,4.59
2018-03-25T21:13:30.363Z,4.52
2018-03-25T21:15:57.879Z,4.49
2018-03-25T21:18:25.415Z,4.43
2018-03-25T21:20:52.988Z,4.51
2018-03-25T21:23:20.503Z,4.58
2018-03-25T21:25:48.022Z,4.48
2018-03-25T21:28:15.573Z,4.61
2018-03-25T21:30:43.090Z,4.70
2018-03-25T21:33:10.608Z,4.76
2018-03-25T21:35:38.131Z,4.70
2018-03-25T21:38:05.655Z,4.65
2018-03-25T21:40:33.178Z,4.67
2018-03-25T21:43:00.731Z,4.76
2018-03-25T21:45:28.266Z,4.76
2018-03-25T21:47:55.830Z,4.71
2018-03-25T21:50:23.353Z,4.70
2018-03-25T21:52:50.918Z,4.67
2018-03-25T21:55:18.482Z,4.76
2018-03-25T21:57:46.009Z,4.70
2018-03-25T22:00:13.584Z,4.82
2018-03-25T22:02:41.189Z,4.90
2018-03-25T22:05:08.959Z,4.86
2018-03-25T22:07:36.488Z,4.83
2018-03-25T22:10:04.032Z,4.85
2018-03-25T22:12:31.580Z,4.88
2018-03-25T22:14:59.111Z,4.91
2018-03-25T22:17:26.639Z,4.95
2018-03-25T22:19:54.182Z,4.95
2018-03-25T22:22:21.731Z,4.90
2018-03-25T22:24:49.264Z,4.74
2018-03-25T22:27:16.788Z,4.63
2018-03-25T22:29:44.304Z,4.63
2018-03-25T22:32:11.868Z,4.62
2018-03-25T22:34:39.402Z,4.70
2018-03-25T22:37:06.932Z,4.80
2018-03-25T22:39:34.732Z,4.83
2018-03-25T22:42:02.260Z,4.71
2018-03-25T22:44:29.780Z,4.67
2018-03-25T22:46:58.107Z,4.60
2018-03-25T22:49:25.687Z,4.72
2018-03-25T22:51:53.224Z,4.76
2018-03-25T22:54:20.802Z,4.69
2018-03-25T22:56:48.328Z,4.70
2018-03-25T22:59:15.886Z,4.59
2018-03-25T23:01:43.413Z,4.57
2018-03-25T23:04:10.935Z,4.67
2018-03-25T23:06:38.490Z,4.64
2018-03-25T23:09:06.079Z,4.73
2018-03-25T23:11:33.600Z,4.74
2018-03-25T23:14:01.119Z,4.74
2018-03-25T23:16:28.652Z,4.82
2018-03-25T23:18:56.232Z,4.91
2018-03-25T23:21:23.763Z,4.89
2018-03-25T23:23:51.296Z,4.83
2018-03-25T23:26:18.814Z,4.73
2018-03-25T23:28:46.365Z,4.77
2018-03-25T23:31:13.940Z,4.87
2018-03-25T23:33:41.502Z,4.78
2018-03-25T23:36:09.019Z,4.82
2018-03-25T23:38:36.535Z,4.72
2018-03-25T23:41:04.061Z,4.78
2018-03-25T23:43:31.841Z,4.93
2018-03-25T23:45:59.388Z,4.99
2018-03-25T23:48:26.898Z,4.87
2018-03-25T23:50:54.449Z,4.83
2018-03-25T23:53:22.052Z,4.86
2018-03-25T23:55:49.584Z,4.86
2018-03-25T23:58:17.126Z,4.97
